KWYS/WYS METAR and TAF weather

Enter ICAO airport designator
Station Type Date Time Source
KWYS METAR 2020/01/28 20:50 UTC NOAA

KWYS 282050Z AUTO 22009KT 1 1/4SM -SN SCT019 M02/M04 A3001 RMK AO2


Station Type Date Time Source
KWYS Decoded METAR 2020/01/28 20:50 UTC NOAA

West Yellowstone, MT, United States (KWYS) 44-41N 111-07W
Jan 28, 2020 - 03:50 PM EST / 2020.01.28 2050 UTC
Wind: from the SW (220 degrees) at 10 MPH (9 KT):0
Visibility: 1 1/4 mile(s):0
Sky conditions: partly cloudy
Weather: light snow
Temperature: 28 F (-2 C)
Windchill: 19 F (-7 C):1
Dew Point: 24 F (-4 C)
Relative Humidity: 86%
Pressure (altimeter): 30.01 in. Hg (1016 hPa)
ob: KWYS 282050Z AUTO 22009KT 1 1/4SM -SN SCT019 M02/M04 A3001 RMK AO2
cycle: 21

Station Type Date Time Source
KWYS TAF 2020/01/28 18:20 UTC NOAA

TAF KWYS 281720Z 2818/2918 VRB05KT 3SM -SN BR SCT005 OVC012
TEMPO 2818/2822 1SM -SN BR BKN005
FM282200 VRB03KT 2SM -SN BR SCT015 OVC025
TEMPO 2822/2902 1SM -SN BR BKN015
FM290300 VRB03KT 3SM -SN BR BKN015 OVC030
FM290600 00000KT 2SM -SN BR OVC005
FM291200 00000KT 6SM BR SCT015 BKN030
FM291500 00000KT P6SM SCT035 BKN050

Example: see airport list